Racket, Missouri
Current Conditions -  °F | °C
As of 10:35 PM on Friday 24 Oct 2014 (Local Time) from KGLY Reporting Station
Clear Clear  
Wind Chill: 66°   Ceiling: Unl
Heat Index: 66°   Visibility: 7mi
Dew Point: 61°   Wind: 6mph
Humidity: 83%   Direction: 220°SW
Pressure: 30.02"   Gusts: NA
Location:  38.3166°N, 93.2711°W
Report Text: KGLY 250335Z AUTO 22005KT 7SM CLR 19/16 A3002 RMK AO2
Loading
Personal Weather Stations






























Interactive Weather Map
Tropical Storm Tracking
New forecast layout! Learn more

10-Day Weather Forecast

Advertisements
Track Severe Weather on mobile